sensor_id;sensor_type;location;lat;lon;timestamp;pressure;altitude;pressure_sealevel;temperature;humidity
6020;BME280;3038;51.122;6.840;2023-01-27T00:02:14;101967.53;;;4.22;86.48
6020;BME280;3038;51.122;6.840;2023-01-27T00:04:39;101962.09;;;4.25;86.50
6020;BME280;3038;51.122;6.840;2023-01-27T00:07:05;101968.13;;;4.27;85.78
6020;BME280;3038;51.122;6.840;2023-01-27T00:09:30;101965.50;;;4.27;86.52
6020;BME280;3038;51.122;6.840;2023-01-27T00:11:55;101968.03;;;4.29;85.71
6020;BME280;3038;51.122;6.840;2023-01-27T00:14:39;101971.44;;;4.31;86.00
6020;BME280;3038;51.122;6.840;2023-01-27T00:17:04;101963.53;;;4.31;85.83
6020;BME280;3038;51.122;6.840;2023-01-27T00:19:30;101969.56;;;4.33;85.21
6020;BME280;3038;51.122;6.840;2023-01-27T00:21:55;101973.13;;;4.32;85.52
6020;BME280;3038;51.122;6.840;2023-01-27T00:24:39;101978.84;;;4.38;85.63
6020;BME280;3038;51.122;6.840;2023-01-27T00:27:06;101976.16;;;4.40;84.98
6020;BME280;3038;51.122;6.840;2023-01-27T00:29:35;101974.44;;;4.39;85.13
6020;BME280;3038;51.122;6.840;2023-01-27T00:32:01;101973.69;;;4.37;85.20
6020;BME280;3038;51.122;6.840;2023-01-27T00:34:45;101977.00;;;4.41;85.17
6020;BME280;3038;51.122;6.840;2023-01-27T00:37:11;101980.66;;;4.38;85.05
6020;BME280;3038;51.122;6.840;2023-01-27T00:39:36;101983.28;;;4.38;85.09
6020;BME280;3038;51.122;6.840;2023-01-27T00:42:01;101986.69;;;4.40;84.94
6020;BME280;3038;51.122;6.840;2023-01-27T00:44:27;101981.59;;;4.37;84.94
6020;BME280;3038;51.122;6.840;2023-01-27T00:46:52;101985.16;;;4.36;84.86
6020;BME280;3038;51.122;6.840;2023-01-27T00:49:17;101984.31;;;4.35;84.34
6020;BME280;3038;51.122;6.840;2023-01-27T00:51:43;101983.53;;;4.33;84.90
6020;BME280;3038;51.122;6.840;2023-01-27T00:54:08;101992.09;;;4.37;84.95
6020;BME280;3038;51.122;6.840;2023-01-27T00:56:34;101987.78;;;4.36;84.54
6020;BME280;3038;51.122;6.840;2023-01-27T00:59:00;101992.09;;;4.37;85.19
6020;BME280;3038;51.122;6.840;2023-01-27T01:01:26;101991.94;;;4.40;85.10
6020;BME280;3038;51.122;6.840;2023-01-27T01:03:51;101992.94;;;4.37;84.58
6020;BME280;3038;51.122;6.840;2023-01-27T01:06:17;101995.69;;;4.36;85.11
6020;BME280;3038;51.122;6.840;2023-01-27T01:08:44;101998.31;;;4.36;84.65
6020;BME280;3038;51.122;6.840;2023-01-27T01:11:12;101993.63;;;4.41;85.56
6020;BME280;3038;51.122;6.840;2023-01-27T01:13:38;101998.88;;;4.41;85.17
6020;BME280;3038;51.122;6.840;2023-01-27T01:16:08;102006.00;;;4.39;85.24
6020;BME280;3038;51.122;6.840;2023-01-27T01:18:34;101998.06;;;4.25;83.74
6020;BME280;3038;51.122;6.840;2023-01-27T01:21:00;102005.03;;;4.26;83.82
6020;BME280;3038;51.122;6.840;2023-01-27T01:23:25;102009.25;;;4.28;83.62
6020;BME280;3038;51.122;6.840;2023-01-27T01:25:52;102014.03;;;4.22;83.09
6020;BME280;3038;51.122;6.840;2023-01-27T01:28:18;102011.44;;;4.20;83.13
6020;BME280;3038;51.122;6.840;2023-01-27T01:30:44;102011.56;;;4.19;83.57
6020;BME280;3038;51.122;6.840;2023-01-27T01:33:09;102012.66;;;4.15;83.04
6020;BME280;3038;51.122;6.840;2023-01-27T01:35:36;102016.22;;;4.13;82.62
6020;BME280;3038;51.122;6.840;2023-01-27T01:38:02;102020.88;;;4.08;83.75
6020;BME280;3038;51.122;6.840;2023-01-27T01:40:27;102023.53;;;4.08;83.17
6020;BME280;3038;51.122;6.840;2023-01-27T01:43:02;102018.63;;;4.02;82.91
6020;BME280;3038;51.122;6.840;2023-01-27T01:48:02;102026.66;;;3.99;82.77
6020;BME280;3038;51.122;6.840;2023-01-27T01:50:29;102012.50;;;4.02;83.05
6020;BME280;3038;51.122;6.840;2023-01-27T01:52:54;102016.72;;;4.04;83.43
6020;BME280;3038;51.122;6.840;2023-01-27T01:55:21;102014.34;;;4.00;83.07
6020;BME280;3038;51.122;6.840;2023-01-27T01:57:47;102021.25;;;4.02;83.15
6020;BME280;3038;51.122;6.840;2023-01-27T02:00:13;102031.50;;;4.07;83.94
6020;BME280;3038;51.122;6.840;2023-01-27T02:02:39;102028.63;;;4.11;82.85
6020;BME280;3038;51.122;6.840;2023-01-27T02:05:09;102026.91;;;4.10;82.10
6020;BME280;3038;51.122;6.840;2023-01-27T02:07:56;102028.78;;;4.08;82.63
6020;BME280;3038;51.122;6.840;2023-01-27T02:10:24;102033.34;;;4.05;82.52
6020;BME280;3038;51.122;6.840;2023-01-27T02:12:49;102038.53;;;4.06;83.56
6020;BME280;3038;51.122;6.840;2023-01-27T02:15:15;102034.88;;;4.09;83.17
6020;BME280;3038;51.122;6.840;2023-01-27T02:17:41;102031.50;;;4.07;83.47
6020;BME280;3038;51.122;6.840;2023-01-27T02:28:21;102019.47;;;4.03;83.80
6020;BME280;3038;51.122;6.840;2023-01-27T02:30:46;102044.56;;;3.93;84.06
6020;BME280;3038;51.122;6.840;2023-01-27T02:33:13;102035.81;;;3.92;83.86
6020;BME280;3038;51.122;6.840;2023-01-27T02:36:01;102033.69;;;3.83;84.22
6020;BME280;3038;51.122;6.840;2023-01-27T02:38:32;102039.69;;;3.85;84.90
6020;BME280;3038;51.122;6.840;2023-01-27T02:41:03;102052.16;;;3.81;84.61
6020;BME280;3038;51.122;6.840;2023-01-27T02:43:31;102050.47;;;3.80;83.82
6020;BME280;3038;51.122;6.840;2023-01-27T02:45:56;102047.94;;;3.79;82.80
6020;BME280;3038;51.122;6.840;2023-01-27T02:48:21;102053.53;;;3.73;82.56
6020;BME280;3038;51.122;6.840;2023-01-27T02:50:47;102045.78;;;3.70;81.96
6020;BME280;3038;51.122;6.840;2023-01-27T02:53:12;102058.22;;;3.66;80.75
6020;BME280;3038;51.122;6.840;2023-01-27T02:55:37;102055.69;;;3.65;81.06
6020;BME280;3038;51.122;6.840;2023-01-27T02:58:03;102055.69;;;3.65;80.54
6020;BME280;3038;51.122;6.840;2023-01-27T03:00:28;102069.59;;;3.67;80.84
6020;BME280;3038;51.122;6.840;2023-01-27T03:02:54;102062.50;;;3.69;81.02
6020;BME280;3038;51.122;6.840;2023-01-27T03:05:19;102061.47;;;3.71;80.71
6020;BME280;3038;51.122;6.840;2023-01-27T03:07:44;102069.19;;;3.74;81.16
6020;BME280;3038;51.122;6.840;2023-01-27T03:10:10;102064.09;;;3.71;81.38
6020;BME280;3038;51.122;6.840;2023-01-27T03:12:35;102064.03;;;3.73;81.18
6020;BME280;3038;51.122;6.840;2023-01-27T03:15:01;102067.41;;;3.75;81.26
6020;BME280;3038;51.122;6.840;2023-01-27T03:17:45;102051.81;;;3.72;80.86
6020;BME280;3038;51.122;6.840;2023-01-27T03:20:29;102055.47;;;3.69;81.13
6020;BME280;3038;51.122;6.840;2023-01-27T03:22:54;102066.06;;;3.68;81.99
6020;BME280;3038;51.122;6.840;2023-01-27T03:25:20;102061.94;;;3.62;81.25
6020;BME280;3038;51.122;6.840;2023-01-27T03:27:45;102052.81;;;3.53;80.90
6020;BME280;3038;51.122;6.840;2023-01-27T03:30:11;102059.91;;;3.51;81.73
6020;BME280;3038;51.122;6.840;2023-01-27T03:32:36;102054.84;;;3.48;81.77
6020;BME280;3038;51.122;6.840;2023-01-27T03:35:01;102062.94;;;3.44;82.10
6020;BME280;3038;51.122;6.840;2023-01-27T03:37:29;102061.47;;;3.38;81.99
6020;BME280;3038;51.122;6.840;2023-01-27T03:40:15;102061.88;;;3.30;82.37
6020;BME280;3038;51.122;6.840;2023-01-27T03:42:59;102053.41;;;3.25;81.92
6020;BME280;3038;51.122;6.840;2023-01-27T03:45:47;102063.22;;;3.22;82.49
6020;BME280;3038;51.122;6.840;2023-01-27T03:48:32;102061.50;;;3.21;82.82
6020;BME280;3038;51.122;6.840;2023-01-27T03:50:58;102064.84;;;3.24;82.96
6020;BME280;3038;51.122;6.840;2023-01-27T03:53:23;102071.53;;;3.30;82.60
6020;BME280;3038;51.122;6.840;2023-01-27T03:55:49;102073.31;;;3.29;83.03
6020;BME280;3038;51.122;6.840;2023-01-27T04:00:48;102072.53;;;3.27;83.21
6020;BME280;3038;51.122;6.840;2023-01-27T04:03:13;102069.22;;;3.24;83.14
6020;BME280;3038;51.122;6.840;2023-01-27T04:06:02;102073.56;;;3.25;83.70
6020;BME280;3038;51.122;6.840;2023-01-27T04:08:46;102062.34;;;3.21;83.77
6020;BME280;3038;51.122;6.840;2023-01-27T04:11:11;102072.00;;;3.21;83.13
6020;BME280;3038;51.122;6.840;2023-01-27T04:13:55;102068.59;;;3.19;84.03
6020;BME280;3038;51.122;6.840;2023-01-27T04:16:23;102081.81;;;3.17;84.08
6020;BME280;3038;51.122;6.840;2023-01-27T04:18:53;102068.00;;;3.14;84.44
6020;BME280;3038;51.122;6.840;2023-01-27T04:21:18;102070.47;;;3.17;83.79
6020;BME280;3038;51.122;6.840;2023-01-27T04:23:44;102072.78;;;3.23;83.41
6020;BME280;3038;51.122;6.840;2023-01-27T04:26:09;102078.81;;;3.25;83.92
6020;BME280;3038;51.122;6.840;2023-01-27T04:28:34;102082.09;;;3.28;84.00
6020;BME280;3038;51.122;6.840;2023-01-27T04:31:00;102085.41;;;3.32;84.11
6020;BME280;3038;51.122;6.840;2023-01-27T04:33:25;102083.22;;;3.24;83.81
6020;BME280;3038;51.122;6.840;2023-01-27T04:35:50;102083.44;;;3.20;84.90
6020;BME280;3038;51.122;6.840;2023-01-27T04:38:16;102074.78;;;3.18;84.68
6020;BME280;3038;51.122;6.840;2023-01-27T04:40:42;102068.91;;;3.13;85.54
6020;BME280;3038;51.122;6.840;2023-01-27T04:43:07;102074.34;;;3.09;85.15
6020;BME280;3038;51.122;6.840;2023-01-27T04:45:32;102074.63;;;3.03;85.53
6020;BME280;3038;51.122;6.840;2023-01-27T04:47:58;102076.81;;;2.95;85.58
6020;BME280;3038;51.122;6.840;2023-01-27T04:50:23;102075.94;;;2.95;86.35
6020;BME280;3038;51.122;6.840;2023-01-27T04:52:48;102089.00;;;2.96;86.40
6020;BME280;3038;51.122;6.840;2023-01-27T04:55:14;102089.75;;;2.98;86.03
6020;BME280;3038;51.122;6.840;2023-01-27T04:57:39;102087.09;;;3.00;85.86
6020;BME280;3038;51.122;6.840;2023-01-27T05:00:05;102083.59;;;2.99;85.41
6020;BME280;3038;51.122;6.840;2023-01-27T05:02:31;102090.56;;;3.00;85.92
6020;BME280;3038;51.122;6.840;2023-01-27T05:04:56;102097.50;;;3.01;86.03
6020;BME280;3038;51.122;6.840;2023-01-27T05:07:22;102094.78;;;3.03;85.96
6020;BME280;3038;51.122;6.840;2023-01-27T05:09:47;102095.34;;;3.09;86.64
6020;BME280;3038;51.122;6.840;2023-01-27T05:12:13;102098.56;;;3.15;86.38
6020;BME280;3038;51.122;6.840;2023-01-27T05:14:38;102091.31;;;3.20;86.49
6020;BME280;3038;51.122;6.840;2023-01-27T05:17:03;102095.44;;;3.24;86.11
6020;BME280;3038;51.122;6.840;2023-01-27T05:19:29;102090.06;;;3.27;86.58
6020;BME280;3038;51.122;6.840;2023-01-27T05:21:54;102099.47;;;3.31;86.28
6020;BME280;3038;51.122;6.840;2023-01-27T05:24:19;102096.84;;;3.31;86.73
6020;BME280;3038;51.122;6.840;2023-01-27T05:26:45;102100.94;;;3.37;86.46
6020;BME280;3038;51.122;6.840;2023-01-27T05:29:10;102111.53;;;3.35;86.76
6020;BME280;3038;51.122;6.840;2023-01-27T05:31:35;102108.09;;;3.33;86.51
6020;BME280;3038;51.122;6.840;2023-01-27T05:34:01;102108.09;;;3.33;87.03
6020;BME280;3038;51.122;6.840;2023-01-27T05:36:27;102102.72;;;3.36;87.28
6020;BME280;3038;51.122;6.840;2023-01-27T05:38:53;102116.78;;;3.35;86.93
6020;BME280;3038;51.122;6.840;2023-01-27T05:41:19;102108.81;;;3.37;86.79
6020;BME280;3038;51.122;6.840;2023-01-27T05:43:46;102110.34;;;3.41;86.71
6020;BME280;3038;51.122;6.840;2023-01-27T05:46:17;102112.88;;;3.42;87.13
6020;BME280;3038;51.122;6.840;2023-01-27T05:48:45;102117.16;;;3.45;86.84
6020;BME280;3038;51.122;6.840;2023-01-27T05:51:11;102117.16;;;3.45;85.87
6020;BME280;3038;51.122;6.840;2023-01-27T05:53:37;102117.84;;;3.48;86.49
6020;BME280;3038;51.122;6.840;2023-01-27T05:56:03;102113.44;;;3.49;86.88
6020;BME280;3038;51.122;6.840;2023-01-27T05:58:29;102124.00;;;3.47;85.98
6020;BME280;3038;51.122;6.840;2023-01-27T06:00:55;102122.22;;;3.48;86.61
6020;BME280;3038;51.122;6.840;2023-01-27T06:03:21;102121.38;;;3.47;86.17
6020;BME280;3038;51.122;6.840;2023-01-27T06:05:54;102122.91;;;3.51;86.38
6020;BME280;3038;51.122;6.840;2023-01-27T06:08:23;102116.72;;;3.52;86.45
6020;BME280;3038;51.122;6.840;2023-01-27T06:10:50;102131.41;;;3.56;86.47
6020;BME280;3038;51.122;6.840;2023-01-27T06:13:16;102132.09;;;3.60;86.28
6020;BME280;3038;51.122;6.840;2023-01-27T06:15:43;102130.22;;;3.62;86.59
6020;BME280;3038;51.122;6.840;2023-01-27T06:18:09;102129.22;;;3.65;86.61
6020;BME280;3038;51.122;6.840;2023-01-27T06:20:35;102124.75;;;3.67;86.96
6020;BME280;3038;51.122;6.840;2023-01-27T06:23:01;102118.59;;;3.68;85.93
6020;BME280;3038;51.122;6.840;2023-01-27T06:25:27;102130.94;;;3.66;85.92
6020;BME280;3038;51.122;6.840;2023-01-27T06:27:56;102129.84;;;3.70;86.55
6020;BME280;3038;51.122;6.840;2023-01-27T06:30:22;102132.31;;;3.73;86.28
6020;BME280;3038;51.122;6.840;2023-01-27T06:32:48;102129.84;;;3.70;86.16
6020;BME280;3038;51.122;6.840;2023-01-27T06:35:13;102132.13;;;3.76;86.53
6020;BME280;3038;51.122;6.840;2023-01-27T06:37:38;102135.69;;;3.75;86.26
6020;BME280;3038;51.122;6.840;2023-01-27T06:40:04;102137.56;;;3.73;86.22
6020;BME280;3038;51.122;6.840;2023-01-27T06:42:30;102132.47;;;3.70;86.32
6020;BME280;3038;51.122;6.840;2023-01-27T06:44:55;102140.50;;;3.67;86.24
6020;BME280;3038;51.122;6.840;2023-01-27T06:47:21;102137.03;;;3.66;86.19
6020;BME280;3038;51.122;6.840;2023-01-27T06:49:46;102148.31;;;3.68;85.54
6020;BME280;3038;51.122;6.840;2023-01-27T06:52:11;102150.84;;;3.70;85.23
6020;BME280;3038;51.122;6.840;2023-01-27T06:54:37;102151.78;;;3.69;85.88
6020;BME280;3038;51.122;6.840;2023-01-27T06:57:02;102156.09;;;3.70;85.39
6020;BME280;3038;51.122;6.840;2023-01-27T06:59:28;102151.53;;;3.73;85.86
6020;BME280;3038;51.122;6.840;2023-01-27T07:01:53;102158.06;;;3.82;85.96
6020;BME280;3038;51.122;6.840;2023-01-27T07:04:19;102159.47;;;3.89;84.80
6020;BME280;3038;51.122;6.840;2023-01-27T07:06:44;102160.16;;;3.93;84.40
6020;BME280;3038;51.122;6.840;2023-01-27T07:09:09;102155.16;;;3.88;84.73
6020;BME280;3038;51.122;6.840;2023-01-27T07:11:35;102165.06;;;3.83;85.02
6020;BME280;3038;51.122;6.840;2023-01-27T07:14:01;102167.97;;;3.77;84.87
6020;BME280;3038;51.122;6.840;2023-01-27T07:16:27;102165.91;;;3.83;85.19
6020;BME280;3038;51.122;6.840;2023-01-27T07:18:52;102173.69;;;3.85;84.58
6020;BME280;3038;51.122;6.840;2023-01-27T07:21:17;102171.06;;;3.85;84.97
6020;BME280;3038;51.122;6.840;2023-01-27T07:23:43;102169.03;;;3.90;84.42
6020;BME280;3038;51.122;6.840;2023-01-27T07:26:08;102172.44;;;3.92;84.56
6020;BME280;3038;51.122;6.840;2023-01-27T07:28:33;102178.47;;;3.94;84.22
6020;BME280;3038;51.122;6.840;2023-01-27T07:31:00;102188.81;;;3.97;84.64
6020;BME280;3038;51.122;6.840;2023-01-27T07:33:26;102184.22;;;4.01;84.30
6020;BME280;3038;51.122;6.840;2023-01-27T07:35:51;102184.16;;;4.02;84.95
6020;BME280;3038;51.122;6.840;2023-01-27T07:38:17;102176.09;;;4.05;83.83
6020;BME280;3038;51.122;6.840;2023-01-27T07:40:42;102177.81;;;4.06;84.95
6020;BME280;3038;51.122;6.840;2023-01-27T07:43:08;102178.66;;;4.07;84.08
6020;BME280;3038;51.122;6.840;2023-01-27T07:45:33;102183.75;;;4.10;84.47
6020;BME280;3038;51.122;6.840;2023-01-27T07:48:04;102181.13;;;4.10;84.08
6020;BME280;3038;51.122;6.840;2023-01-27T07:50:30;102183.50;;;4.15;84.54
6020;BME280;3038;51.122;6.840;2023-01-27T07:53:03;102188.44;;;4.21;84.41
6020;BME280;3038;51.122;6.840;2023-01-27T07:55:29;102189.28;;;4.21;84.56
6020;BME280;3038;51.122;6.840;2023-01-27T07:57:56;102182.06;;;4.25;84.86
6020;BME280;3038;51.122;6.840;2023-01-27T08:00:22;102181.31;;;4.23;84.77
6020;BME280;3038;51.122;6.840;2023-01-27T08:02:54;102189.03;;;4.26;84.81
6020;BME280;3038;51.122;6.840;2023-01-27T08:05:20;102183.94;;;4.23;84.27
6020;BME280;3038;51.122;6.840;2023-01-27T08:07:47;102192.91;;;4.19;84.80
6020;BME280;3038;51.122;6.840;2023-01-27T08:10:12;102191.06;;;4.21;84.86
6020;BME280;3038;51.122;6.840;2023-01-27T08:12:37;102195.41;;;4.22;84.25
6020;BME280;3038;51.122;6.840;2023-01-27T08:15:04;102203.09;;;4.25;85.01
6020;BME280;3038;51.122;6.840;2023-01-27T08:17:29;102202.94;;;4.28;84.54
6020;BME280;3038;51.122;6.840;2023-01-27T08:19:55;102194.81;;;4.32;84.79
6020;BME280;3038;51.122;6.840;2023-01-27T08:22:20;102201.75;;;4.33;84.51
6020;BME280;3038;51.122;6.840;2023-01-27T08:24:46;102194.91;;;4.31;84.83
6020;BME280;3038;51.122;6.840;2023-01-27T08:27:11;102185.28;;;4.30;84.51
6020;BME280;3038;51.122;6.840;2023-01-27T08:29:37;102190.56;;;4.30;85.10
6020;BME280;3038;51.122;6.840;2023-01-27T08:32:02;102193.97;;;4.32;85.14
6020;BME280;3038;51.122;6.840;2023-01-27T08:34:28;102191.59;;;4.43;84.37
6020;BME280;3038;51.122;6.840;2023-01-27T08:36:53;102196.34;;;4.52;84.05
6020;BME280;3038;51.122;6.840;2023-01-27T08:39:18;102182.25;;;4.53;83.73
6020;BME280;3038;51.122;6.840;2023-01-27T08:41:44;102188.22;;;4.57;83.77
6020;BME280;3038;51.122;6.840;2023-01-27T08:44:09;102185.91;;;4.67;84.01
6020;BME280;3038;51.122;6.840;2023-01-27T08:46:34;102189.13;;;4.72;83.65
6020;BME280;3038;51.122;6.840;2023-01-27T08:49:00;102181.25;;;4.72;83.68
6020;BME280;3038;51.122;6.840;2023-01-27T08:51:25;102180.75;;;4.65;83.26
6020;BME280;3038;51.122;6.840;2023-01-27T08:53:50;102181.59;;;4.66;83.32
6020;BME280;3038;51.122;6.840;2023-01-27T08:56:16;102179.03;;;4.64;83.54
6020;BME280;3038;51.122;6.840;2023-01-27T08:58:41;102185.22;;;4.63;84.06
6020;BME280;3038;51.122;6.840;2023-01-27T09:01:08;102188.69;;;4.63;83.40
6020;BME280;3038;51.122;6.840;2023-01-27T09:03:34;102185.16;;;4.64;83.84
6020;BME280;3038;51.122;6.840;2023-01-27T09:06:00;102184.97;;;4.68;82.33
6020;BME280;3038;51.122;6.840;2023-01-27T09:08:26;102184.31;;;4.80;83.49
6020;BME280;3038;51.122;6.840;2023-01-27T09:10:52;102192.31;;;4.93;83.19
6020;BME280;3038;51.122;6.840;2023-01-27T09:13:18;102204.91;;;5.03;81.91
6020;BME280;3038;51.122;6.840;2023-01-27T09:15:46;102196.41;;;4.98;82.51
6020;BME280;3038;51.122;6.840;2023-01-27T09:18:11;102192.84;;;4.99;82.53
6020;BME280;3038;51.122;6.840;2023-01-27T09:20:37;102190.88;;;5.03;81.48
6020;BME280;3038;51.122;6.840;2023-01-27T09:23:03;102209.03;;;5.07;82.16
6020;BME280;3038;51.122;6.840;2023-01-27T09:25:29;102203.44;;;5.13;82.25
6020;BME280;3038;51.122;6.840;2023-01-27T09:27:56;102211.03;;;5.34;81.54
6020;BME280;3038;51.122;6.840;2023-01-27T09:30:23;102208.13;;;5.38;81.35
6020;BME280;3038;51.122;6.840;2023-01-27T09:32:48;102212.00;;;5.47;81.41
6020;BME280;3038;51.122;6.840;2023-01-27T09:35:14;102206.81;;;5.46;81.34
6020;BME280;3038;51.122;6.840;2023-01-27T09:37:53;102217.44;;;5.44;81.61
6020;BME280;3038;51.122;6.840;2023-01-27T09:40:31;102218.19;;;5.46;81.15
6020;BME280;3038;51.122;6.840;2023-01-27T09:45:36;102226.19;;;5.45;80.87
6020;BME280;3038;51.122;6.840;2023-01-27T09:48:18;102227.44;;;5.53;81.27
6020;BME280;3038;51.122;6.840;2023-01-27T09:56:31;102245.00;;;5.83;80.58
6020;BME280;3038;51.122;6.840;2023-01-27T10:02:11;102244.88;;;5.70;80.30
6020;BME280;3038;51.122;6.840;2023-01-27T10:13:02;102243.50;;;5.79;80.89
6020;BME280;3038;51.122;6.840;2023-01-27T10:15:37;102250.84;;;5.74;79.89
6020;BME280;3038;51.122;6.840;2023-01-27T10:23:33;102243.19;;;6.13;78.64
6020;BME280;3038;51.122;6.840;2023-01-27T10:26:27;102246.78;;;6.12;79.43
6020;BME280;3038;51.122;6.840;2023-01-27T10:29:31;102249.25;;;6.30;78.68
6020;BME280;3038;51.122;6.840;2023-01-27T10:32:02;102237.75;;;6.16;78.76
6020;BME280;3038;51.122;6.840;2023-01-27T10:34:36;102230.38;;;6.22;78.83
6020;BME280;3038;51.122;6.840;2023-01-27T10:37:33;102240.38;;;6.16;79.48
6020;BME280;3038;51.122;6.840;2023-01-27T10:40:17;102246.94;;;6.24;78.33
6020;BME280;3038;51.122;6.840;2023-01-27T10:42:57;102238.88;;;6.27;78.19
6020;BME280;3038;51.122;6.840;2023-01-27T10:45:33;102243.97;;;6.15;78.91
6020;BME280;3038;51.122;6.840;2023-01-27T10:48:11;102242.06;;;6.32;79.51
6020;BME280;3038;51.122;6.840;2023-01-27T10:50:46;102233.03;;;6.36;78.72
6020;BME280;3038;51.122;6.840;2023-01-27T10:56:07;102232.91;;;6.37;78.24
6020;BME280;3038;51.122;6.840;2023-01-27T10:58:54;102250.38;;;6.26;79.31
6020;BME280;3038;51.122;6.840;2023-01-27T11:01:27;102241.69;;;6.24;79.74
6020;BME280;3038;51.122;6.840;2023-01-27T11:04:06;102249.97;;;6.17;79.66
6020;BME280;3038;51.122;6.840;2023-01-27T11:06:37;102245.53;;;6.18;79.49
6020;BME280;3038;51.122;6.840;2023-01-27T11:11:51;102248.94;;;6.06;79.98
6020;BME280;3038;51.122;6.840;2023-01-27T11:14:25;102239.63;;;6.14;79.97
6020;BME280;3038;51.122;6.840;2023-01-27T11:17:21;102238.47;;;6.04;79.42
6020;BME280;3038;51.122;6.840;2023-01-27T11:20:07;102243.00;;;6.02;80.30
6020;BME280;3038;51.122;6.840;2023-01-27T11:22:49;102241.13;;;6.18;79.99
6020;BME280;3038;51.122;6.840;2023-01-27T11:31:01;102234.66;;;6.80;76.57
6020;BME280;3038;51.122;6.840;2023-01-27T11:33:45;102237.97;;;6.69;77.46
6020;BME280;3038;51.122;6.840;2023-01-27T11:36:13;102230.47;;;6.49;77.46
6020;BME280;3038;51.122;6.840;2023-01-27T11:38:39;102233.19;;;6.33;78.70
6020;BME280;3038;51.122;6.840;2023-01-27T11:41:04;102225.56;;;6.28;79.08
6020;BME280;3038;51.122;6.840;2023-01-27T11:43:30;102225.50;;;6.44;78.41
6020;BME280;3038;51.122;6.840;2023-01-27T11:46:00;102232.63;;;6.56;78.35
6020;BME280;3038;51.122;6.840;2023-01-27T11:48:36;102218.13;;;6.49;77.24
6020;BME280;3038;51.122;6.840;2023-01-27T11:51:11;102214.28;;;6.40;77.92
6020;BME280;3038;51.122;6.840;2023-01-27T11:53:39;102223.88;;;6.41;78.98
6020;BME280;3038;51.122;6.840;2023-01-27T11:56:15;102218.88;;;6.51;77.81
6020;BME280;3038;51.122;6.840;2023-01-27T11:58:49;102227.00;;;6.48;77.38
6020;BME280;3038;51.122;6.840;2023-01-27T12:01:23;102227.56;;;6.53;77.79
6020;BME280;3038;51.122;6.840;2023-01-27T12:04:10;102226.78;;;6.51;78.14
6020;BME280;3038;51.122;6.840;2023-01-27T12:06:44;102223.41;;;6.49;77.79
6020;BME280;3038;51.122;6.840;2023-01-27T12:09:35;102213.59;;;6.37;77.52
6020;BME280;3038;51.122;6.840;2023-01-27T12:14:56;102204.03;;;6.22;77.58
6020;BME280;3038;51.122;6.840;2023-01-27T12:17:39;102210.03;;;6.24;78.37
6020;BME280;3038;51.122;6.840;2023-01-27T12:22:46;102199.88;;;6.32;77.64
6020;BME280;3038;51.122;6.840;2023-01-27T12:25:20;102197.31;;;6.44;78.07
6020;BME280;3038;51.122;6.840;2023-01-27T12:27:50;102193.84;;;6.44;77.78
6020;BME280;3038;51.122;6.840;2023-01-27T12:30:25;102189.78;;;6.38;76.70
6020;BME280;3038;51.122;6.840;2023-01-27T12:32:52;102195.44;;;6.32;77.89
6020;BME280;3038;51.122;6.840;2023-01-27T12:35:33;102186.56;;;6.48;76.95
6020;BME280;3038;51.122;6.840;2023-01-27T12:38:06;102191.09;;;6.46;77.40
6020;BME280;3038;51.122;6.840;2023-01-27T12:40:39;102179.88;;;6.42;77.12
6020;BME280;3038;51.122;6.840;2023-01-27T12:43:11;102180.00;;;6.26;77.26
6020;BME280;3038;51.122;6.840;2023-01-27T12:45:38;102186.13;;;6.27;77.96
6020;BME280;3038;51.122;6.840;2023-01-27T12:50:42;102181.03;;;6.24;77.80
6020;BME280;3038;51.122;6.840;2023-01-27T12:55:43;102183.59;;;6.25;78.22
6020;BME280;3038;51.122;6.840;2023-01-27T12:58:29;102187.91;;;6.26;77.65
6020;BME280;3038;51.122;6.840;2023-01-27T13:00:56;102187.25;;;6.08;78.45
6020;BME280;3038;51.122;6.840;2023-01-27T13:03:24;102190.66;;;6.10;77.59
6020;BME280;3038;51.122;6.840;2023-01-27T13:05:54;102192.34;;;6.11;77.42
6020;BME280;3038;51.122;6.840;2023-01-27T13:08:22;102188.03;;;6.10;78.43
6020;BME280;3038;51.122;6.840;2023-01-27T13:11:00;102194.25;;;6.09;78.20
6020;BME280;3038;51.122;6.840;2023-01-27T13:13:28;102191.97;;;6.03;77.90
6020;BME280;3038;51.122;6.840;2023-01-27T13:16:12;102199.31;;;5.98;77.99
6020;BME280;3038;51.122;6.840;2023-01-27T13:18:39;102204.69;;;5.97;77.68
6020;BME280;3038;51.122;6.840;2023-01-27T13:21:12;102196.50;;;6.01;78.47
6020;BME280;3038;51.122;6.840;2023-01-27T13:23:40;102204.97;;;5.92;78.74
6020;BME280;3038;51.122;6.840;2023-01-27T13:28:48;102204.97;;;6.06;79.35
6020;BME280;3038;51.122;6.840;2023-01-27T13:31:21;102214.09;;;6.01;78.70
6020;BME280;3038;51.122;6.840;2023-01-27T13:33:58;102212.69;;;5.95;78.81
6020;BME280;3038;51.122;6.840;2023-01-27T13:36:44;102212.16;;;5.88;78.67
6020;BME280;3038;51.122;6.840;2023-01-27T13:42:12;102215.41;;;5.93;79.04
6020;BME280;3038;51.122;6.840;2023-01-27T13:45:10;102219.56;;;5.98;78.39
6020;BME280;3038;51.122;6.840;2023-01-27T13:47:52;102216.25;;;5.94;77.75
6020;BME280;3038;51.122;6.840;2023-01-27T13:50:32;102221.53;;;5.94;77.70
6020;BME280;3038;51.122;6.840;2023-01-27T13:53:00;102222.63;;;5.90;78.26
6020;BME280;3038;51.122;6.840;2023-01-27T13:58:22;102222.25;;;5.82;77.62
6020;BME280;3038;51.122;6.840;2023-01-27T14:09:29;102222.97;;;5.70;76.38
6020;BME280;3038;51.122;6.840;2023-01-27T14:17:45;102232.41;;;5.88;76.38
6020;BME280;3038;51.122;6.840;2023-01-27T14:20:32;102223.13;;;5.97;75.85
6020;BME280;3038;51.122;6.840;2023-01-27T14:28:50;102239.63;;;6.00;76.34
6020;BME280;3038;51.122;6.840;2023-01-27T14:31:20;102240.38;;;6.02;76.38
6020;BME280;3038;51.122;6.840;2023-01-27T14:33:59;102238.00;;;5.98;75.87
6020;BME280;3038;51.122;6.840;2023-01-27T14:42:14;102242.56;;;5.80;76.87
6020;BME280;3038;51.122;6.840;2023-01-27T14:45:22;102248.78;;;5.79;76.77
6020;BME280;3038;51.122;6.840;2023-01-27T14:48:07;102248.19;;;5.74;76.52
6020;BME280;3038;51.122;6.840;2023-01-27T14:50:44;102246.78;;;5.68;75.89
6020;BME280;3038;51.122;6.840;2023-01-27T14:53:20;102239.50;;;5.57;76.47
6020;BME280;3038;51.122;6.840;2023-01-27T14:55:53;102242.88;;;5.59;77.01
6020;BME280;3038;51.122;6.840;2023-01-27T15:06:38;102262.84;;;5.63;76.78
6020;BME280;3038;51.122;6.840;2023-01-27T15:10:01;102250.22;;;5.54;76.00
6020;BME280;3038;51.122;6.840;2023-01-27T15:12:37;102258.78;;;5.58;76.34
6020;BME280;3038;51.122;6.840;2023-01-27T15:20:40;102269.19;;;5.45;76.10
6020;BME280;3038;51.122;6.840;2023-01-27T15:26:07;102272.19;;;5.39;76.14
6020;BME280;3038;51.122;6.840;2023-01-27T15:28:38;102287.50;;;5.32;76.56